createdAt,value
2023-01-30T00:00:57.361Z,9.28
2023-01-30T00:01:59.343Z,9.98
2023-01-30T00:03:01.284Z,9.61
2023-01-30T00:04:03.089Z,9.31
2023-01-30T00:05:04.924Z,9.32
2023-01-30T00:06:07.027Z,9.66
2023-01-30T00:07:08.853Z,9.35
2023-01-30T00:08:10.660Z,9.20
2023-01-30T00:09:12.444Z,9.17
2023-01-30T00:10:14.269Z,9.97
2023-01-30T00:11:16.072Z,9.39
2023-01-30T00:12:17.959Z,9.64
2023-01-30T00:13:19.736Z,9.36
2023-01-30T00:14:21.534Z,8.94
2023-01-30T00:15:23.334Z,9.51
2023-01-30T00:16:25.283Z,10.32
2023-01-30T00:17:27.256Z,9.45
2023-01-30T00:18:29.415Z,9.85
2023-01-30T00:19:31.225Z,10.33
2023-01-30T00:20:33.039Z,9.87
2023-01-30T00:21:36.107Z,10.00
2023-01-30T00:22:37.901Z,10.48
2023-01-30T00:23:39.696Z,10.19
2023-01-30T00:24:41.603Z,10.49
2023-01-30T00:25:43.463Z,9.99
2023-01-30T00:26:45.452Z,10.85
2023-01-30T00:27:47.350Z,9.41
2023-01-30T00:28:49.138Z,10.21
2023-01-30T00:30:02.204Z,10.15
2023-01-30T00:30:54.719Z,10.50
2023-01-30T00:31:56.537Z,11.19
2023-01-30T00:32:58.318Z,11.69
2023-01-30T00:34:00.124Z,13.37
2023-01-30T00:35:01.930Z,13.44
2023-01-30T00:36:03.917Z,11.88
2023-01-30T00:37:08.537Z,13.14
2023-01-30T00:38:10.887Z,12.64
2023-01-30T00:39:12.759Z,13.11
2023-01-30T00:40:14.503Z,13.99
2023-01-30T00:41:16.299Z,14.32
2023-01-30T00:42:18.101Z,12.09
2023-01-30T00:43:19.954Z,13.35
2023-01-30T00:44:21.757Z,12.35
2023-01-30T00:45:23.552Z,12.76
2023-01-30T00:46:25.549Z,11.87
2023-01-30T00:47:27.359Z,10.49
2023-01-30T00:48:29.219Z,11.95
2023-01-30T00:49:31.949Z,11.86
2023-01-30T00:50:33.851Z,12.01
2023-01-30T00:51:35.683Z,11.89
2023-01-30T00:52:37.506Z,10.61
2023-01-30T00:53:39.341Z,10.36
2023-01-30T00:54:41.143Z,10.11
2023-01-30T00:55:42.940Z,10.05
2023-01-30T00:56:44.752Z,10.16
2023-01-30T00:57:46.553Z,8.99
2023-01-30T00:58:48.385Z,9.76
2023-01-30T00:59:50.533Z,9.59
2023-01-30T01:00:52.398Z,9.51
2023-01-30T01:01:56.520Z,9.48
2023-01-30T01:02:58.327Z,9.38
2023-01-30T01:04:00.174Z,10.07
2023-01-30T01:05:02.040Z,9.08
2023-01-30T01:06:03.832Z,9.93
2023-01-30T01:07:05.619Z,9.72
2023-01-30T01:08:07.524Z,10.17
2023-01-30T01:09:09.378Z,9.52
2023-01-30T01:10:11.678Z,9.38
2023-01-30T01:11:13.499Z,9.45
2023-01-30T01:12:15.315Z,9.49
2023-01-30T01:13:17.118Z,9.15
2023-01-30T01:14:18.991Z,9.45
2023-01-30T01:15:20.996Z,9.77
2023-01-30T01:16:22.843Z,9.31
2023-01-30T01:17:24.688Z,8.85
2023-01-30T01:18:26.698Z,9.74
2023-01-30T01:19:28.514Z,9.21
2023-01-30T01:20:30.331Z,9.77
2023-01-30T01:21:32.148Z,12.29
2023-01-30T01:22:33.963Z,11.32
2023-01-30T01:23:35.804Z,12.09
2023-01-30T01:24:37.760Z,10.86
2023-01-30T01:25:39.546Z,10.89
2023-01-30T01:26:41.373Z,10.09
2023-01-30T01:27:43.155Z,10.05
2023-01-30T01:28:44.941Z,10.02
2023-01-30T01:29:46.787Z,9.99
2023-01-30T01:30:48.601Z,10.27
2023-01-30T01:31:50.436Z,9.27
2023-01-30T01:32:52.193Z,8.91
2023-01-30T01:33:53.986Z,8.80
2023-01-30T01:34:55.825Z,9.54
2023-01-30T01:35:57.676Z,9.45
2023-01-30T01:36:59.622Z,9.59
2023-01-30T01:38:01.401Z,9.07
2023-01-30T01:39:03.202Z,9.05
2023-01-30T01:40:05.248Z,8.53
2023-01-30T01:41:07.050Z,8.97
2023-01-30T01:42:10.035Z,8.40
2023-01-30T01:43:12.363Z,8.75
2023-01-30T01:44:14.163Z,8.65
2023-01-30T01:45:16.302Z,8.97
2023-01-30T01:46:18.221Z,8.90
2023-01-30T01:47:20.013Z,8.38
2023-01-30T01:48:21.818Z,9.03
2023-01-30T01:49:23.630Z,9.18
2023-01-30T01:50:25.565Z,9.91
2023-01-30T01:51:27.422Z,8.99
2023-01-30T01:52:29.308Z,8.71
2023-01-30T01:53:31.108Z,8.94
2023-01-30T01:54:32.896Z,8.96
2023-01-30T01:55:37.159Z,9.71
2023-01-30T01:56:39.091Z,9.32
2023-01-30T01:57:40.878Z,9.50
2023-01-30T01:58:42.679Z,9.82
2023-01-30T01:59:44.483Z,9.79
2023-01-30T02:00:46.341Z,11.13
2023-01-30T02:01:48.138Z,10.89
2023-01-30T02:02:49.927Z,10.68
2023-01-30T02:03:51.722Z,11.66
2023-01-30T02:04:53.527Z,11.65
2023-01-30T02:05:55.381Z,11.79
2023-01-30T02:06:57.236Z,11.27
2023-01-30T02:07:59.035Z,11.89
2023-01-30T02:09:00.840Z,12.63
2023-01-30T02:10:02.662Z,12.65
2023-01-30T02:11:04.493Z,13.90
2023-01-30T02:12:06.281Z,14.22
2023-01-30T02:13:08.087Z,14.83
2023-01-30T02:14:09.875Z,14.98
2023-01-30T02:15:11.679Z,16.10
2023-01-30T02:16:14.327Z,15.87
2023-01-30T02:17:16.163Z,16.16
2023-01-30T02:18:17.917Z,14.99
2023-01-30T02:19:19.724Z,13.85
2023-01-30T02:20:21.648Z,13.55
2023-01-30T02:21:23.504Z,13.56
2023-01-30T02:22:25.333Z,12.74
2023-01-30T02:23:27.222Z,12.85
2023-01-30T02:24:29.067Z,12.35
2023-01-30T02:25:30.967Z,12.67
2023-01-30T02:26:33.010Z,13.02
2023-01-30T02:27:34.847Z,15.19
2023-01-30T02:28:36.656Z,12.29
2023-01-30T02:29:38.447Z,14.07
2023-01-30T02:30:40.462Z,14.24
2023-01-30T02:31:42.343Z,14.75
2023-01-30T02:32:44.109Z,15.29
2023-01-30T02:33:45.946Z,16.55
2023-01-30T02:34:47.709Z,24.25
2023-01-30T02:35:49.516Z,22.07
2023-01-30T02:36:51.373Z,24.44
2023-01-30T02:37:53.273Z,23.24
2023-01-30T02:38:55.078Z,20.21
2023-01-30T02:39:56.880Z,21.24
2023-01-30T02:40:59.381Z,24.85
2023-01-30T02:42:01.236Z,22.94
2023-01-30T02:43:03.048Z,21.05
2023-01-30T02:44:04.851Z,19.43
2023-01-30T02:45:06.636Z,17.47
2023-01-30T02:46:08.776Z,15.01
2023-01-30T02:47:10.583Z,14.69
2023-01-30T02:48:12.383Z,15.21
2023-01-30T02:49:14.720Z,15.14
2023-01-30T02:50:16.735Z,15.25
2023-01-30T02:51:18.545Z,15.30
2023-01-30T02:52:20.384Z,15.56
2023-01-30T02:53:22.240Z,15.09
2023-01-30T02:54:24.037Z,17.02
2023-01-30T02:55:25.833Z,17.11
2023-01-30T02:56:27.681Z,20.78
2023-01-30T02:57:29.514Z,21.06
2023-01-30T02:58:31.288Z,21.27
2023-01-30T02:59:33.087Z,18.29
2023-01-30T03:00:35.001Z,21.57
2023-01-30T03:01:36.857Z,18.45
2023-01-30T03:02:38.782Z,18.12
2023-01-30T03:03:40.581Z,16.85
2023-01-30T03:04:42.390Z,15.25
2023-01-30T03:05:44.196Z,15.37
2023-01-30T03:06:46.500Z,16.22
2023-01-30T03:07:48.351Z,15.08
2023-01-30T03:08:50.274Z,15.20
2023-01-30T03:09:52.069Z,15.04
2023-01-30T03:10:53.980Z,15.46
2023-01-30T03:11:55.791Z,15.27
2023-01-30T03:12:57.619Z,14.45
2023-01-30T03:13:59.415Z,13.56
2023-01-30T03:15:01.226Z,12.95
2023-01-30T03:16:03.130Z,13.81
2023-01-30T03:17:04.961Z,12.71
2023-01-30T03:18:06.820Z,12.13
2023-01-30T03:19:08.712Z,11.96
2023-01-30T03:20:11.652Z,12.94
2023-01-30T03:21:13.458Z,13.38
2023-01-30T03:22:15.261Z,13.89
2023-01-30T03:23:17.101Z,11.80
2023-01-30T03:24:18.921Z,11.92
2023-01-30T03:25:20.820Z,12.83
2023-01-30T03:26:22.820Z,12.48
2023-01-30T03:27:24.652Z,14.07
2023-01-30T03:28:26.502Z,13.27
2023-01-30T03:29:28.311Z,13.96
2023-01-30T03:30:30.112Z,14.08
2023-01-30T03:31:31.992Z,13.89
2023-01-30T03:32:33.817Z,14.78
2023-01-30T03:33:35.674Z,14.47
2023-01-30T03:34:38.026Z,15.39
2023-01-30T03:35:39.828Z,14.77
2023-01-30T03:36:41.937Z,15.80
2023-01-30T03:37:43.743Z,16.84
2023-01-30T03:38:45.594Z,16.54
2023-01-30T03:39:47.403Z,17.69
2023-01-30T03:40:49.204Z,18.20
2023-01-30T03:41:51.003Z,16.43
2023-01-30T03:42:52.818Z,16.71
2023-01-30T03:43:54.665Z,17.64
2023-01-30T03:44:56.495Z,16.69
2023-01-30T03:45:58.327Z,15.29
2023-01-30T03:47:00.090Z,15.47
2023-01-30T03:48:01.896Z,15.76
2023-01-30T03:49:03.743Z,15.64
2023-01-30T03:50:05.637Z,16.97
2023-01-30T03:51:07.436Z,16.85
2023-01-30T03:52:09.250Z,16.91
2023-01-30T03:53:11.056Z,16.61
2023-01-30T03:54:14.441Z,16.92
2023-01-30T03:55:16.771Z,16.34
2023-01-30T03:56:18.885Z,15.63
2023-01-30T03:57:20.707Z,14.99
2023-01-30T03:58:22.649Z,14.28
2023-01-30T03:59:24.505Z,13.69
2023-01-30T04:00:26.714Z,13.75
2023-01-30T04:01:28.527Z,13.07
2023-01-30T04:02:30.353Z,13.79
2023-01-30T04:03:32.241Z,13.74
2023-01-30T04:04:34.086Z,13.11
2023-01-30T04:05:35.887Z,12.99
2023-01-30T04:06:38.001Z,13.22
2023-01-30T04:07:39.871Z,12.44
2023-01-30T04:08:41.665Z,12.11
2023-01-30T04:09:43.530Z,12.21
2023-01-30T04:10:45.483Z,12.95
2023-01-30T04:11:47.285Z,12.40
2023-01-30T04:12:49.084Z,12.30
2023-01-30T04:13:50.909Z,12.25
2023-01-30T04:14:52.744Z,12.25
2023-01-30T04:15:54.546Z,12.33
2023-01-30T04:16:56.560Z,11.54
2023-01-30T04:17:58.342Z,12.15
2023-01-30T04:19:00.168Z,11.75
2023-01-30T04:20:01.999Z,11.66
2023-01-30T04:21:03.809Z,11.87
2023-01-30T04:22:05.618Z,15.43
2023-01-30T04:23:07.436Z,15.48
2023-01-30T04:24:09.249Z,15.65
2023-01-30T04:25:11.091Z,14.44
2023-01-30T04:26:13.026Z,14.41
2023-01-30T04:27:14.823Z,13.11
2023-01-30T04:28:16.643Z,13.04
2023-01-30T04:29:18.452Z,12.69
2023-01-30T04:30:22.194Z,13.74
2023-01-30T04:31:24.036Z,12.60
2023-01-30T04:32:25.812Z,12.67
2023-01-30T04:33:27.618Z,12.79
2023-01-30T04:34:29.412Z,12.86
2023-01-30T04:35:31.267Z,12.89
2023-01-30T04:36:33.057Z,12.74
2023-01-30T04:37:34.857Z,12.90
2023-01-30T04:38:36.666Z,12.05
2023-01-30T04:39:38.476Z,11.69
2023-01-30T04:40:40.306Z,12.33
2023-01-30T04:41:42.115Z,12.24
2023-01-30T04:42:43.917Z,11.62
2023-01-30T04:43:45.828Z,11.99
2023-01-30T04:44:47.625Z,12.14
2023-01-30T04:45:49.474Z,11.02
2023-01-30T04:46:51.378Z,11.65
2023-01-30T04:47:53.266Z,12.07
2023-01-30T04:48:55.078Z,11.55
2023-01-30T04:49:56.879Z,11.02
2023-01-30T04:50:58.829Z,10.77
2023-01-30T04:52:00.614Z,11.21
2023-01-30T04:53:02.424Z,11.48
2023-01-30T04:54:04.220Z,12.37
2023-01-30T04:55:06.030Z,11.92
2023-01-30T04:56:08.492Z,11.26
2023-01-30T04:57:10.341Z,11.73
2023-01-30T04:58:12.155Z,11.06
2023-01-30T04:59:13.949Z,10.93
2023-01-30T05:00:15.949Z,10.69
2023-01-30T05:01:17.819Z,11.00
2023-01-30T05:02:20.875Z,11.26
2023-01-30T05:03:23.219Z,10.41
2023-01-30T05:04:25.022Z,11.69
2023-01-30T05:05:26.820Z,10.77
2023-01-30T05:06:28.667Z,10.94
2023-01-30T05:07:30.474Z,11.32
2023-01-30T05:08:32.263Z,11.14
2023-01-30T05:09:34.074Z,10.35
2023-01-30T05:10:35.880Z,11.13
2023-01-30T05:11:37.728Z,10.93
2023-01-30T05:12:39.539Z,11.25
2023-01-30T05:13:41.336Z,10.33
2023-01-30T05:14:43.135Z,11.96
2023-01-30T05:15:44.943Z,11.79
2023-01-30T05:16:46.794Z,11.39
2023-01-30T05:17:48.594Z,11.15
2023-01-30T05:18:50.383Z,11.84
2023-01-30T05:19:52.189Z,11.91
2023-01-30T05:20:54.381Z,12.56
2023-01-30T05:21:56.233Z,12.19
2023-01-30T05:22:58.028Z,11.54
2023-01-30T05:23:59.826Z,11.93
2023-01-30T05:25:01.624Z,12.27
2023-01-30T05:26:03.521Z,13.59
2023-01-30T05:27:05.385Z,12.85
2023-01-30T05:28:07.184Z,13.25
2023-01-30T05:29:08.985Z,12.49
2023-01-30T05:30:11.388Z,13.41
2023-01-30T05:31:13.247Z,13.89
2023-01-30T05:32:15.144Z,13.18
2023-01-30T05:33:16.952Z,15.66
2023-01-30T05:34:18.731Z,17.72
2023-01-30T05:35:20.776Z,19.15
2023-01-30T05:36:22.659Z,24.93
2023-01-30T05:37:24.513Z,24.43
2023-01-30T05:38:26.292Z,22.99
2023-01-30T05:39:28.099Z,21.48
2023-01-30T05:40:30.096Z,16.23
2023-01-30T05:41:31.947Z,16.73
2023-01-30T05:42:33.774Z,19.99
2023-01-30T05:43:35.590Z,20.56
2023-01-30T05:44:37.389Z,19.06
2023-01-30T05:45:41.810Z,18.19
2023-01-30T05:46:43.830Z,18.69
2023-01-30T05:47:45.711Z,19.78
2023-01-30T05:48:47.553Z,18.61
2023-01-30T05:49:49.384Z,19.86
2023-01-30T05:50:51.165Z,18.52
2023-01-30T05:51:52.960Z,19.27
2023-01-30T05:52:54.826Z,20.52
2023-01-30T05:53:56.635Z,19.49
2023-01-30T05:54:58.444Z,18.51
2023-01-30T05:56:00.224Z,19.04
2023-01-30T05:57:02.017Z,19.57
2023-01-30T05:58:03.882Z,20.32
2023-01-30T05:59:05.802Z,20.53
2023-01-30T06:00:08.214Z,23.11
2023-01-30T06:01:10.010Z,22.89
2023-01-30T06:02:12.161Z,20.04
2023-01-30T06:03:14.045Z,17.75
2023-01-30T06:04:15.845Z,19.01
2023-01-30T06:05:17.913Z,19.69
2023-01-30T06:06:19.852Z,17.28
2023-01-30T06:07:21.633Z,17.75
2023-01-30T06:08:23.487Z,17.31
2023-01-30T06:09:25.281Z,17.79
2023-01-30T06:10:27.206Z,17.77
2023-01-30T06:11:29.012Z,18.68
2023-01-30T06:12:30.799Z,18.75
2023-01-30T06:13:32.626Z,18.51
2023-01-30T06:14:34.508Z,17.80
2023-01-30T06:15:36.349Z,19.21
2023-01-30T06:16:38.182Z,19.04
2023-01-30T06:17:39.943Z,19.49
2023-01-30T06:18:41.781Z,18.52
2023-01-30T06:19:43.591Z,16.67
2023-01-30T06:20:45.604Z,15.94
2023-01-30T06:21:47.448Z,15.27
2023-01-30T06:22:49.241Z,14.73
2023-01-30T06:23:51.101Z,14.28
2023-01-30T06:24:52.938Z,15.95
2023-01-30T06:25:54.729Z,15.59
2023-01-30T06:26:56.533Z,13.88
2023-01-30T06:27:58.341Z,13.05
2023-01-30T06:29:00.201Z,12.79
2023-01-30T06:30:02.050Z,12.87
2023-01-30T06:31:03.937Z,13.53
2023-01-30T06:32:05.743Z,12.93
2023-01-30T06:33:07.549Z,12.85
2023-01-30T06:34:09.405Z,12.98
2023-01-30T06:35:11.208Z,13.46
2023-01-30T06:36:13.023Z,12.63
2023-01-30T06:37:14.825Z,13.09
2023-01-30T06:38:16.620Z,13.41
2023-01-30T06:39:18.455Z,13.84
2023-01-30T06:40:20.257Z,13.65
2023-01-30T06:41:22.058Z,13.38
2023-01-30T06:42:23.864Z,12.77
2023-01-30T06:43:26.271Z,12.79
2023-01-30T06:44:28.114Z,13.80
2023-01-30T06:45:29.987Z,12.92
2023-01-30T06:46:32.495Z,12.65
2023-01-30T06:47:34.252Z,13.11
2023-01-30T06:48:36.142Z,12.99
2023-01-30T06:49:38.014Z,14.12
2023-01-30T06:50:39.932Z,13.36
2023-01-30T06:51:41.853Z,13.64
2023-01-30T06:52:43.759Z,15.73
2023-01-30T06:53:45.595Z,15.37
2023-01-30T06:54:47.441Z,14.95
2023-01-30T06:55:49.246Z,14.05
2023-01-30T06:56:51.039Z,14.91
2023-01-30T06:57:52.856Z,13.37
2023-01-30T06:58:54.645Z,13.50
2023-01-30T06:59:56.527Z,12.46
2023-01-30T07:00:58.401Z,11.72
2023-01-30T07:02:00.337Z,12.70
2023-01-30T07:03:02.314Z,12.11
2023-01-30T07:04:05.333Z,12.64
2023-01-30T07:05:07.223Z,15.56
2023-01-30T07:06:10.452Z,15.75
2023-01-30T07:07:12.247Z,14.49
2023-01-30T07:08:14.085Z,15.65
2023-01-30T07:09:15.989Z,14.56
2023-01-30T07:10:17.831Z,12.70
2023-01-30T07:11:19.642Z,15.46
2023-01-30T07:12:21.444Z,16.07
2023-01-30T07:13:23.420Z,17.44
2023-01-30T07:14:25.228Z,16.25
2023-01-30T07:15:27.065Z,16.66
2023-01-30T07:16:29.046Z,15.37
2023-01-30T07:17:30.887Z,14.94
2023-01-30T07:18:32.692Z,14.49
2023-01-30T07:19:34.495Z,14.27
2023-01-30T07:20:36.674Z,12.24
2023-01-30T07:21:38.473Z,14.36
2023-01-30T07:22:40.283Z,15.27
2023-01-30T07:23:42.117Z,17.39
2023-01-30T07:24:43.951Z,15.59
2023-01-30T07:25:45.841Z,14.86
2023-01-30T07:26:47.720Z,13.44
2023-01-30T07:27:49.655Z,13.40
2023-01-30T07:28:51.463Z,12.64
2023-01-30T07:29:53.444Z,12.49
2023-01-30T07:30:55.366Z,12.23
2023-01-30T07:31:57.247Z,13.54
2023-01-30T07:33:00.177Z,12.92
2023-01-30T07:34:01.952Z,15.03
2023-01-30T07:35:05.925Z,13.35
2023-01-30T07:36:08.364Z,14.13
2023-01-30T07:37:10.143Z,14.21
2023-01-30T07:38:11.939Z,14.89
2023-01-30T07:39:13.775Z,16.61
2023-01-30T07:40:15.886Z,16.88
2023-01-30T07:41:17.759Z,18.61
2023-01-30T07:42:19.546Z,19.27
2023-01-30T07:43:21.366Z,19.77
2023-01-30T07:44:23.155Z,16.50
2023-01-30T07:45:24.989Z,15.25
2023-01-30T07:46:26.809Z,15.14
2023-01-30T07:47:28.681Z,16.42
2023-01-30T07:48:30.544Z,19.09
2023-01-30T07:49:32.363Z,18.36
2023-01-30T07:50:34.266Z,19.25
2023-01-30T07:51:36.173Z,19.40
2023-01-30T07:52:37.976Z,18.51
2023-01-30T07:53:39.795Z,17.92
2023-01-30T07:54:41.587Z,17.76
2023-01-30T07:55:43.402Z,17.95
2023-01-30T07:56:45.585Z,15.51
2023-01-30T07:57:47.373Z,17.26
2023-01-30T07:58:49.189Z,16.47
2023-01-30T07:59:51.129Z,16.28
2023-01-30T08:00:52.970Z,16.99
2023-01-30T08:01:54.828Z,16.98
2023-01-30T08:02:56.710Z,14.28
2023-01-30T08:03:58.509Z,15.01
2023-01-30T08:05:00.415Z,15.35
2023-01-30T08:06:02.231Z,13.71
2023-01-30T08:07:04.069Z,14.11
2023-01-30T08:08:05.869Z,13.83
2023-01-30T08:09:07.714Z,12.60
2023-01-30T08:10:11.978Z,13.33
2023-01-30T08:11:14.064Z,12.94
2023-01-30T08:12:15.999Z,13.21
2023-01-30T08:13:17.802Z,12.73
2023-01-30T08:14:19.612Z,14.25
2023-01-30T08:15:22.909Z,14.69
2023-01-30T08:16:24.964Z,15.66
2023-01-30T08:17:28.243Z,14.35
2023-01-30T08:18:30.165Z,12.88
2023-01-30T08:19:31.980Z,13.19
2023-01-30T08:20:33.884Z,11.73
2023-01-30T08:21:35.674Z,11.92
2023-01-30T08:22:37.548Z,11.46
2023-01-30T08:23:40.470Z,12.16
2023-01-30T08:24:42.301Z,11.31
2023-01-30T08:25:44.120Z,12.27
2023-01-30T08:26:45.938Z,11.20
2023-01-30T08:27:47.789Z,11.65
2023-01-30T08:28:49.568Z,12.04
2023-01-30T08:29:51.386Z,11.65
2023-01-30T08:30:54.572Z,11.90
2023-01-30T08:31:56.529Z,11.85
2023-01-30T08:32:58.409Z,11.63
2023-01-30T08:34:00.340Z,11.86
2023-01-30T08:35:03.126Z,13.00
2023-01-30T08:36:05.047Z,12.48
2023-01-30T08:37:06.842Z,13.26
2023-01-30T08:38:08.708Z,13.73
2023-01-30T08:39:10.516Z,12.43
2023-01-30T08:40:12.436Z,12.61
2023-01-30T08:41:14.248Z,11.15
2023-01-30T08:42:16.066Z,10.96
2023-01-30T08:43:17.900Z,11.39
2023-01-30T08:44:19.701Z,12.03
2023-01-30T08:45:21.878Z,11.41
2023-01-30T08:46:24.074Z,12.91
2023-01-30T08:47:26.412Z,12.67
2023-01-30T08:48:31.858Z,12.98
2023-01-30T08:49:32.035Z,12.22
2023-01-30T08:50:34.298Z,12.48
2023-01-30T08:51:36.670Z,12.07
2023-01-30T08:52:38.487Z,11.63
2023-01-30T08:53:40.343Z,12.59
2023-01-30T08:54:42.343Z,12.76
2023-01-30T08:55:44.171Z,11.39
2023-01-30T08:56:46.175Z,11.95
2023-01-30T08:57:48.011Z,12.41
2023-01-30T08:58:50.009Z,10.14
2023-01-30T08:59:51.849Z,10.56
2023-01-30T09:00:53.935Z,11.51
2023-01-30T09:01:56.799Z,12.28
2023-01-30T09:02:58.639Z,11.88
2023-01-30T09:04:00.533Z,12.01
2023-01-30T09:05:02.593Z,11.57
2023-01-30T09:06:04.483Z,11.54
2023-01-30T09:07:06.333Z,12.18
2023-01-30T09:08:08.147Z,13.76
2023-01-30T09:09:09.986Z,13.94
2023-01-30T09:10:12.098Z,13.69
2023-01-30T09:11:13.894Z,11.88
2023-01-30T09:12:15.694Z,13.09
2023-01-30T09:13:17.534Z,13.72
2023-01-30T09:14:19.472Z,14.49
2023-01-30T09:15:21.266Z,14.52
2023-01-30T09:16:23.315Z,13.21
2023-01-30T09:17:25.074Z,21.28
2023-01-30T09:18:26.890Z,14.09
2023-01-30T09:19:28.932Z,16.04
2023-01-30T09:20:30.772Z,15.79
2023-01-30T09:21:32.546Z,17.69
2023-01-30T09:22:34.358Z,20.34
2023-01-30T09:23:36.206Z,19.40
2023-01-30T09:24:38.143Z,20.04
2023-01-30T09:25:39.937Z,18.35
2023-01-30T09:26:41.965Z,15.90
2023-01-30T09:27:43.756Z,14.39
2023-01-30T09:28:45.637Z,12.92
2023-01-30T09:29:47.476Z,13.24
2023-01-30T09:30:49.471Z,12.50
2023-01-30T09:31:51.332Z,11.91
2023-01-30T09:32:53.139Z,11.98
2023-01-30T09:33:54.947Z,11.45
2023-01-30T09:34:56.812Z,11.29
2023-01-30T09:35:58.622Z,11.03
2023-01-30T09:37:00.524Z,11.09
2023-01-30T09:38:02.390Z,11.57
2023-01-30T09:39:04.201Z,11.87
2023-01-30T09:40:06.470Z,11.53
2023-01-30T09:41:08.268Z,13.11
2023-01-30T09:42:10.060Z,13.38
2023-01-30T09:43:11.860Z,13.40
2023-01-30T09:44:13.652Z,13.91
2023-01-30T09:45:15.484Z,13.69
2023-01-30T09:46:17.418Z,14.45
2023-01-30T09:47:19.205Z,16.72
2023-01-30T09:48:21.013Z,20.82
2023-01-30T09:49:23.747Z,18.83
2023-01-30T09:50:25.558Z,17.75
2023-01-30T09:51:27.762Z,19.07
2023-01-30T09:52:29.574Z,16.40
2023-01-30T09:53:31.413Z,16.43
2023-01-30T09:54:33.188Z,14.44
2023-01-30T09:55:35.061Z,14.88
2023-01-30T09:56:37.157Z,15.75
2023-01-30T09:57:38.970Z,16.01
2023-01-30T09:58:40.774Z,18.27
2023-01-30T09:59:42.580Z,17.02
2023-01-30T10:00:45.579Z,17.67
2023-01-30T10:01:47.384Z,15.95
2023-01-30T10:02:49.186Z,13.93
2023-01-30T10:03:50.996Z,13.69
2023-01-30T10:05:01.256Z,16.79
2023-01-30T10:05:56.428Z,16.48
2023-01-30T10:06:58.572Z,15.09
2023-01-30T10:08:00.465Z,14.42
2023-01-30T10:09:02.503Z,13.73
2023-01-30T10:10:04.417Z,13.88
2023-01-30T10:11:10.615Z,13.41
2023-01-30T10:12:09.889Z,13.96
2023-01-30T10:13:11.683Z,15.13
2023-01-30T10:14:13.487Z,17.80
2023-01-30T10:15:15.301Z,16.93
2023-01-30T10:16:17.253Z,15.89
2023-01-30T10:17:19.055Z,13.56
2023-01-30T10:18:20.888Z,12.71
2023-01-30T10:19:34.625Z,13.73
2023-01-30T10:20:26.650Z,13.32
2023-01-30T10:21:28.444Z,13.54
2023-01-30T10:22:30.325Z,13.30
2023-01-30T10:23:32.155Z,14.70
2023-01-30T10:24:33.957Z,13.60
2023-01-30T10:25:35.752Z,14.89
2023-01-30T10:26:37.645Z,16.53
2023-01-30T10:27:39.377Z,18.17
2023-01-30T10:28:41.197Z,17.87
2023-01-30T10:29:43.014Z,18.32
2023-01-30T10:30:45.108Z,15.69
2023-01-30T10:31:47.073Z,18.16
2023-01-30T10:32:48.912Z,17.65
2023-01-30T10:33:50.692Z,17.29
2023-01-30T10:34:52.492Z,17.37
2023-01-30T10:35:54.291Z,17.60
2023-01-30T10:36:56.133Z,16.43
2023-01-30T10:37:58.088Z,15.64
2023-01-30T10:38:59.869Z,14.99
2023-01-30T10:40:01.674Z,17.81
2023-01-30T10:41:03.475Z,18.29
2023-01-30T10:42:05.439Z,17.43
2023-01-30T10:43:07.243Z,18.11
2023-01-30T10:44:09.044Z,17.29
2023-01-30T10:45:10.849Z,16.20
2023-01-30T10:46:12.714Z,15.38
2023-01-30T10:47:14.788Z,16.00
2023-01-30T10:48:18.222Z,15.91
2023-01-30T10:49:20.006Z,15.41
2023-01-30T10:50:22.993Z,16.72
2023-01-30T10:51:24.737Z,15.04
2023-01-30T10:52:26.580Z,16.44
2023-01-30T10:53:28.442Z,14.25
2023-01-30T10:54:30.246Z,14.09
2023-01-30T10:55:37.722Z,13.69
2023-01-30T10:56:35.986Z,15.11
2023-01-30T10:57:39.335Z,14.57
2023-01-30T10:58:41.162Z,15.30
2023-01-30T10:59:42.955Z,14.61
2023-01-30T11:00:44.764Z,15.03
2023-01-30T11:01:46.717Z,15.71
2023-01-30T11:02:51.368Z,16.87
2023-01-30T11:03:52.129Z,16.43
2023-01-30T11:04:53.922Z,18.71
2023-01-30T11:05:55.734Z,17.79
2023-01-30T11:06:57.536Z,16.58
2023-01-30T11:07:59.397Z,16.11
2023-01-30T11:09:01.212Z,17.61
2023-01-30T11:10:03.419Z,17.08
2023-01-30T11:11:05.829Z,17.88
2023-01-30T11:12:07.641Z,17.21
2023-01-30T11:13:10.621Z,19.96
2023-01-30T11:14:12.485Z,20.67
2023-01-30T11:15:14.616Z,20.23
2023-01-30T11:16:16.825Z,19.27
2023-01-30T11:17:18.646Z,18.53
2023-01-30T11:19:06.685Z,16.89
2023-01-30T11:19:25.627Z,18.64
2023-01-30T11:20:27.642Z,19.39
2023-01-30T11:21:43.119Z,17.84
2023-01-30T11:22:33.044Z,18.06
2023-01-30T11:23:34.894Z,17.71
2023-01-30T11:24:36.802Z,18.00
2023-01-30T11:25:38.621Z,17.90
2023-01-30T11:26:47.243Z,18.61
2023-01-30T11:27:44.169Z,18.89
2023-01-30T11:28:48.673Z,19.65
2023-01-30T11:29:51.006Z,18.98
2023-01-30T11:30:52.862Z,21.14
2023-01-30T11:31:54.712Z,21.47
2023-01-30T11:32:56.536Z,22.31
2023-01-30T11:33:58.384Z,19.91
2023-01-30T11:35:00.190Z,21.65
2023-01-30T11:36:03.744Z,22.54
2023-01-30T11:37:05.594Z,21.03
2023-01-30T11:38:07.392Z,21.66
2023-01-30T11:39:09.247Z,23.66
2023-01-30T11:40:11.086Z,24.31
2023-01-30T11:41:12.879Z,26.79
2023-01-30T11:42:14.689Z,24.53
2023-01-30T11:43:16.485Z,24.85
2023-01-30T11:44:18.349Z,23.86
2023-01-30T11:45:21.277Z,23.63
2023-01-30T11:46:23.196Z,24.40
2023-01-30T11:47:25.622Z,22.90
2023-01-30T11:48:33.375Z,23.86
2023-01-30T11:49:35.674Z,22.04
2023-01-30T11:51:32.165Z,22.18
2023-01-30T11:51:38.511Z,24.09
2023-01-30T11:52:40.707Z,25.82
2023-01-30T11:53:42.532Z,26.09
2023-01-30T11:54:44.373Z,25.08
2023-01-30T11:56:00.365Z,24.69
2023-01-30T11:56:50.004Z,28.81
2023-01-30T11:57:52.379Z,26.28
2023-01-30T11:58:54.194Z,25.31
2023-01-30T11:59:56.038Z,26.17
2023-01-30T12:00:58.138Z,25.73
2023-01-30T12:02:00.617Z,25.41
2023-01-30T12:03:02.491Z,27.67
2023-01-30T12:04:04.254Z,27.64
2023-01-30T12:05:06.106Z,32.59
2023-01-30T12:06:08.518Z,35.65
2023-01-30T12:07:10.339Z,34.67
2023-01-30T12:08:12.165Z,34.95
2023-01-30T12:09:13.945Z,32.21
2023-01-30T12:10:18.688Z,30.12
2023-01-30T12:11:20.764Z,33.69
2023-01-30T12:12:22.597Z,38.06
2023-01-30T12:13:24.395Z,37.01
2023-01-30T12:14:26.195Z,33.86
2023-01-30T12:15:28.054Z,32.18
2023-01-30T12:16:30.165Z,31.65
2023-01-30T12:17:31.971Z,30.08
2023-01-30T12:18:33.786Z,30.35
2023-01-30T12:19:35.630Z,28.50
2023-01-30T12:20:37.587Z,27.92
2023-01-30T12:21:39.379Z,31.63
2023-01-30T12:22:41.181Z,36.46
2023-01-30T12:23:42.990Z,40.57
2023-01-30T12:24:44.800Z,40.21
2023-01-30T12:25:46.641Z,37.87
2023-01-30T12:26:48.686Z,33.18
2023-01-30T12:27:50.607Z,28.29
2023-01-30T12:28:52.399Z,25.89
2023-01-30T12:29:54.237Z,20.21
2023-01-30T12:30:56.088Z,18.83
2023-01-30T12:31:57.899Z,18.07
2023-01-30T12:34:01.502Z,15.34
2023-01-30T12:35:03.324Z,17.83
2023-01-30T12:36:07.777Z,18.63
2023-01-30T12:37:09.634Z,18.32
2023-01-30T12:38:11.443Z,16.72
2023-01-30T12:39:13.259Z,17.52
2023-01-30T12:40:15.149Z,16.11
2023-01-30T12:41:17.009Z,15.33
2023-01-30T12:42:20.154Z,16.83
2023-01-30T12:43:22.432Z,17.59
2023-01-30T12:44:24.242Z,15.55
2023-01-30T12:45:26.045Z,15.16
2023-01-30T12:46:27.917Z,14.75
2023-01-30T12:47:29.691Z,15.73
2023-01-30T12:48:32.452Z,17.56
2023-01-30T12:49:35.133Z,14.48
2023-01-30T12:50:37.246Z,12.49
2023-01-30T12:51:39.681Z,13.37
2023-01-30T12:52:42.529Z,13.04
2023-01-30T12:53:44.354Z,12.98
2023-01-30T12:54:46.144Z,13.07
2023-01-30T12:55:47.959Z,12.79
2023-01-30T12:56:50.394Z,12.54
2023-01-30T12:57:52.241Z,11.52
2023-01-30T12:58:54.054Z,13.58
2023-01-30T12:59:55.913Z,13.14
2023-01-30T13:00:58.026Z,15.29
2023-01-30T13:01:59.930Z,14.19
2023-01-30T13:03:01.808Z,13.45
2023-01-30T13:04:03.639Z,13.61
2023-01-30T13:05:05.427Z,14.64
2023-01-30T13:06:08.245Z,16.74
2023-01-30T13:07:10.094Z,18.91
2023-01-30T13:08:11.902Z,19.00
2023-01-30T13:09:13.713Z,21.02
2023-01-30T13:10:16.707Z,18.62
2023-01-30T13:11:18.638Z,19.51
2023-01-30T13:12:20.483Z,15.97
2023-01-30T13:13:22.811Z,13.87
2023-01-30T13:14:24.622Z,17.85
2023-01-30T13:15:26.441Z,19.84
2023-01-30T13:16:28.344Z,17.37
2023-01-30T13:17:30.186Z,18.00
2023-01-30T13:18:32.003Z,18.15
2023-01-30T13:19:40.944Z,16.67
2023-01-30T13:20:37.537Z,16.54
2023-01-30T13:21:39.337Z,16.03